sensor_id;sensor_type;location;lat;lon;timestamp;temperature;humidity
38361;DHT22;42005;48.044;14.416;2024-03-29T00:01:33;5.20;99.90
38361;DHT22;42005;48.044;14.416;2024-03-29T00:03:59;5.10;99.90
38361;DHT22;42005;48.044;14.416;2024-03-29T00:06:27;5.10;99.90
38361;DHT22;42005;48.044;14.416;2024-03-29T00:08:52;5.00;99.90
38361;DHT22;42005;48.044;14.416;2024-03-29T00:11:20;5.00;99.90
38361;DHT22;42005;48.044;14.416;2024-03-29T00:13:46;4.90;99.90
38361;DHT22;42005;48.044;14.416;2024-03-29T00:16:14;4.90;99.90
38361;DHT22;42005;48.044;14.416;2024-03-29T00:18:40;4.90;99.90
38361;DHT22;42005;48.044;14.416;2024-03-29T00:21:06;4.80;99.90
38361;DHT22;42005;48.044;14.416;2024-03-29T00:23:32;4.70;99.90
38361;DHT22;42005;48.044;14.416;2024-03-29T00:25:58;4.70;99.90
38361;DHT22;42005;48.044;14.416;2024-03-29T00:28:24;4.70;99.90
38361;DHT22;42005;48.044;14.416;2024-03-29T00:30:50;4.60;99.90
38361;DHT22;42005;48.044;14.416;2024-03-29T00:33:16;4.60;99.90
38361;DHT22;42005;48.044;14.416;2024-03-29T00:35:42;4.60;99.90
38361;DHT22;42005;48.044;14.416;2024-03-29T00:38:08;4.50;99.90
38361;DHT22;42005;48.044;14.416;2024-03-29T00:40:35;4.50;99.90
38361;DHT22;42005;48.044;14.416;2024-03-29T00:43:01;4.50;99.90
38361;DHT22;42005;48.044;14.416;2024-03-29T00:45:27;4.50;99.90
38361;DHT22;42005;48.044;14.416;2024-03-29T00:47:54;4.40;99.90
38361;DHT22;42005;48.044;14.416;2024-03-29T00:50:20;4.40;99.90
38361;DHT22;42005;48.044;14.416;2024-03-29T00:52:46;4.30;99.90
38361;DHT22;42005;48.044;14.416;2024-03-29T00:55:14;4.30;99.90
38361;DHT22;42005;48.044;14.416;2024-03-29T00:57:40;4.20;99.90
38361;DHT22;42005;48.044;14.416;2024-03-29T01:00:06;4.20;99.90
38361;DHT22;42005;48.044;14.416;2024-03-29T01:02:32;4.20;99.90
38361;DHT22;42005;48.044;14.416;2024-03-29T01:04:58;4.20;99.90
38361;DHT22;42005;48.044;14.416;2024-03-29T01:07:24;4.20;99.90
38361;DHT22;42005;48.044;14.416;2024-03-29T01:09:50;4.10;99.90
38361;DHT22;42005;48.044;14.416;2024-03-29T01:12:16;4.10;99.90
38361;DHT22;42005;48.044;14.416;2024-03-29T01:14:42;4.10;99.90
38361;DHT22;42005;48.044;14.416;2024-03-29T01:17:08;4.00;99.90
38361;DHT22;42005;48.044;14.416;2024-03-29T01:19:36;4.00;99.90
38361;DHT22;42005;48.044;14.416;2024-03-29T01:22:03;3.90;99.90
38361;DHT22;42005;48.044;14.416;2024-03-29T01:24:30;3.90;99.90
38361;DHT22;42005;48.044;14.416;2024-03-29T01:26:56;3.90;99.90
38361;DHT22;42005;48.044;14.416;2024-03-29T01:29:21;3.80;99.90
38361;DHT22;42005;48.044;14.416;2024-03-29T01:31:49;3.80;99.90
38361;DHT22;42005;48.044;14.416;2024-03-29T01:34:15;3.80;99.90
38361;DHT22;42005;48.044;14.416;2024-03-29T01:36:43;3.80;99.90
38361;DHT22;42005;48.044;14.416;2024-03-29T01:39:09;3.80;99.90
38361;DHT22;42005;48.044;14.416;2024-03-29T01:41:39;3.80;99.90
38361;DHT22;42005;48.044;14.416;2024-03-29T01:44:05;3.70;99.90
38361;DHT22;42005;48.044;14.416;2024-03-29T01:46:35;3.70;99.90
38361;DHT22;42005;48.044;14.416;2024-03-29T01:49:02;3.70;99.90
38361;DHT22;42005;48.044;14.416;2024-03-29T01:51:31;3.70;99.90
38361;DHT22;42005;48.044;14.416;2024-03-29T01:53:58;3.70;99.90
38361;DHT22;42005;48.044;14.416;2024-03-29T01:56:28;3.60;99.90
38361;DHT22;42005;48.044;14.416;2024-03-29T01:58:57;3.60;99.90
38361;DHT22;42005;48.044;14.416;2024-03-29T02:01:24;3.60;99.90
38361;DHT22;42005;48.044;14.416;2024-03-29T02:03:52;3.60;99.90
38361;DHT22;42005;48.044;14.416;2024-03-29T02:06:21;3.60;99.90
38361;DHT22;42005;48.044;14.416;2024-03-29T02:08:49;3.60;99.90
38361;DHT22;42005;48.044;14.416;2024-03-29T02:11:17;3.60;99.90
38361;DHT22;42005;48.044;14.416;2024-03-29T02:13:44;3.50;99.90
38361;DHT22;42005;48.044;14.416;2024-03-29T02:16:10;3.50;99.90
38361;DHT22;42005;48.044;14.416;2024-03-29T02:18:36;3.50;99.90
38361;DHT22;42005;48.044;14.416;2024-03-29T02:21:02;3.50;99.90
38361;DHT22;42005;48.044;14.416;2024-03-29T02:23:30;3.40;99.90
38361;DHT22;42005;48.044;14.416;2024-03-29T02:25:58;3.40;99.90
38361;DHT22;42005;48.044;14.416;2024-03-29T02:28:24;3.40;99.90
38361;DHT22;42005;48.044;14.416;2024-03-29T02:30:50;3.40;99.90
38361;DHT22;42005;48.044;14.416;2024-03-29T02:33:16;3.40;99.90
38361;DHT22;42005;48.044;14.416;2024-03-29T02:35:42;3.40;99.90
38361;DHT22;42005;48.044;14.416;2024-03-29T02:38:08;3.30;99.90
38361;DHT22;42005;48.044;14.416;2024-03-29T02:40:34;3.30;99.90
38361;DHT22;42005;48.044;14.416;2024-03-29T02:43:00;3.20;99.90
38361;DHT22;42005;48.044;14.416;2024-03-29T02:45:26;3.20;99.90
38361;DHT22;42005;48.044;14.416;2024-03-29T02:47:52;3.10;99.90
38361;DHT22;42005;48.044;14.416;2024-03-29T02:50:20;3.10;99.90
38361;DHT22;42005;48.044;14.416;2024-03-29T02:52:46;3.10;99.90
38361;DHT22;42005;48.044;14.416;2024-03-29T02:55:12;3.10;99.90
38361;DHT22;42005;48.044;14.416;2024-03-29T02:57:38;3.00;99.90
38361;DHT22;42005;48.044;14.416;2024-03-29T03:00:08;3.00;99.90
38361;DHT22;42005;48.044;14.416;2024-03-29T03:02:41;3.00;99.90
38361;DHT22;42005;48.044;14.416;2024-03-29T03:05:07;3.00;99.90
38361;DHT22;42005;48.044;14.416;2024-03-29T03:07:34;3.00;99.90
38361;DHT22;42005;48.044;14.416;2024-03-29T03:10:19;3.00;99.90
38361;DHT22;42005;48.044;14.416;2024-03-29T03:15:33;3.10;99.90
38361;DHT22;42005;48.044;14.416;2024-03-29T03:17:58;3.10;99.90
38361;DHT22;42005;48.044;14.416;2024-03-29T03:20:24;3.20;99.90
38361;DHT22;42005;48.044;14.416;2024-03-29T03:22:56;3.20;99.90
38361;DHT22;42005;48.044;14.416;2024-03-29T03:25:24;3.30;99.90
38361;DHT22;42005;48.044;14.416;2024-03-29T03:27:50;3.30;99.90
38361;DHT22;42005;48.044;14.416;2024-03-29T03:30:16;3.30;99.90
38361;DHT22;42005;48.044;14.416;2024-03-29T03:32:42;3.30;99.90
38361;DHT22;42005;48.044;14.416;2024-03-29T03:35:10;3.40;99.90
38361;DHT22;42005;48.044;14.416;2024-03-29T03:37:36;3.40;99.90
38361;DHT22;42005;48.044;14.416;2024-03-29T03:40:02;3.40;99.90
38361;DHT22;42005;48.044;14.416;2024-03-29T03:42:30;3.40;99.90
38361;DHT22;42005;48.044;14.416;2024-03-29T03:44:58;3.50;99.90
38361;DHT22;42005;48.044;14.416;2024-03-29T03:47:27;3.50;99.90
38361;DHT22;42005;48.044;14.416;2024-03-29T03:49:52;3.50;99.90
38361;DHT22;42005;48.044;14.416;2024-03-29T03:52:18;3.50;99.90
38361;DHT22;42005;48.044;14.416;2024-03-29T03:54:44;3.50;99.90
38361;DHT22;42005;48.044;14.416;2024-03-29T03:57:12;3.50;99.90
38361;DHT22;42005;48.044;14.416;2024-03-29T03:59:40;3.50;99.90
38361;DHT22;42005;48.044;14.416;2024-03-29T04:02:11;3.60;99.90
38361;DHT22;42005;48.044;14.416;2024-03-29T04:04:39;3.60;99.90
38361;DHT22;42005;48.044;14.416;2024-03-29T04:07:05;3.60;99.90
38361;DHT22;42005;48.044;14.416;2024-03-29T04:09:33;3.60;99.90
38361;DHT22;42005;48.044;14.416;2024-03-29T04:11:59;3.60;99.90
38361;DHT22;42005;48.044;14.416;2024-03-29T04:14:25;3.60;99.90
38361;DHT22;42005;48.044;14.416;2024-03-29T04:16:51;3.60;99.90
38361;DHT22;42005;48.044;14.416;2024-03-29T04:19:19;3.60;99.90
38361;DHT22;42005;48.044;14.416;2024-03-29T04:21:45;3.60;99.90
38361;DHT22;42005;48.044;14.416;2024-03-29T04:24:11;3.60;99.90
38361;DHT22;42005;48.044;14.416;2024-03-29T04:26:37;3.60;99.90
38361;DHT22;42005;48.044;14.416;2024-03-29T04:29:04;3.50;99.90
38361;DHT22;42005;48.044;14.416;2024-03-29T04:31:30;3.50;99.90
38361;DHT22;42005;48.044;14.416;2024-03-29T04:33:56;3.50;99.90
38361;DHT22;42005;48.044;14.416;2024-03-29T04:36:22;3.50;99.90
38361;DHT22;42005;48.044;14.416;2024-03-29T04:38:50;3.40;99.90
38361;DHT22;42005;48.044;14.416;2024-03-29T04:41:19;3.50;99.90
38361;DHT22;42005;48.044;14.416;2024-03-29T04:43:45;3.40;99.90
38361;DHT22;42005;48.044;14.416;2024-03-29T04:46:12;3.40;99.90
38361;DHT22;42005;48.044;14.416;2024-03-29T04:48:39;3.50;99.90
38361;DHT22;42005;48.044;14.416;2024-03-29T04:51:07;3.50;99.90
38361;DHT22;42005;48.044;14.416;2024-03-29T04:53:36;3.50;99.90
38361;DHT22;42005;48.044;14.416;2024-03-29T04:56:05;3.40;99.90
38361;DHT22;42005;48.044;14.416;2024-03-29T04:58:31;3.40;99.90
38361;DHT22;42005;48.044;14.416;2024-03-29T05:00:58;3.40;99.90
38361;DHT22;42005;48.044;14.416;2024-03-29T05:03:24;3.40;99.90
38361;DHT22;42005;48.044;14.416;2024-03-29T05:05:51;3.40;99.90
38361;DHT22;42005;48.044;14.416;2024-03-29T05:08:17;3.40;99.90
38361;DHT22;42005;48.044;14.416;2024-03-29T05:10:44;3.40;99.90
38361;DHT22;42005;48.044;14.416;2024-03-29T05:13:12;3.40;99.90
38361;DHT22;42005;48.044;14.416;2024-03-29T05:15:38;3.40;99.90
38361;DHT22;42005;48.044;14.416;2024-03-29T05:18:05;3.40;99.90
38361;DHT22;42005;48.044;14.416;2024-03-29T05:20:31;3.40;99.90
38361;DHT22;42005;48.044;14.416;2024-03-29T05:23:00;3.40;99.90
38361;DHT22;42005;48.044;14.416;2024-03-29T05:25:26;3.40;99.90
38361;DHT22;42005;48.044;14.416;2024-03-29T05:27:52;3.40;99.90
38361;DHT22;42005;48.044;14.416;2024-03-29T05:30:19;3.40;99.90
38361;DHT22;42005;48.044;14.416;2024-03-29T05:32:45;3.50;99.90
38361;DHT22;42005;48.044;14.416;2024-03-29T05:35:11;3.50;99.90
38361;DHT22;42005;48.044;14.416;2024-03-29T05:37:37;3.50;99.90
38361;DHT22;42005;48.044;14.416;2024-03-29T05:40:06;3.50;99.90
38361;DHT22;42005;48.044;14.416;2024-03-29T05:42:35;3.60;99.90
38361;DHT22;42005;48.044;14.416;2024-03-29T05:45:20;3.60;99.90
38361;DHT22;42005;48.044;14.416;2024-03-29T05:47:56;3.60;99.90
38361;DHT22;42005;48.044;14.416;2024-03-29T05:50:23;3.70;99.90
38361;DHT22;42005;48.044;14.416;2024-03-29T05:52:51;3.70;99.90
38361;DHT22;42005;48.044;14.416;2024-03-29T05:55:17;3.80;99.90
38361;DHT22;42005;48.044;14.416;2024-03-29T05:57:43;3.70;99.90
38361;DHT22;42005;48.044;14.416;2024-03-29T06:00:12;3.70;99.90
38361;DHT22;42005;48.044;14.416;2024-03-29T06:02:42;3.70;99.90
38361;DHT22;42005;48.044;14.416;2024-03-29T06:05:08;3.70;99.90
38361;DHT22;42005;48.044;14.416;2024-03-29T06:07:35;3.70;99.90
38361;DHT22;42005;48.044;14.416;2024-03-29T06:10:01;3.60;99.90
38361;DHT22;42005;48.044;14.416;2024-03-29T06:12:33;3.60;99.90
38361;DHT22;42005;48.044;14.416;2024-03-29T06:15:00;3.60;99.90
38361;DHT22;42005;48.044;14.416;2024-03-29T06:17:44;3.60;99.90
38361;DHT22;42005;48.044;14.416;2024-03-29T06:20:12;3.60;99.90
38361;DHT22;42005;48.044;14.416;2024-03-29T06:22:38;3.60;99.90
38361;DHT22;42005;48.044;14.416;2024-03-29T06:25:04;3.60;99.90
38361;DHT22;42005;48.044;14.416;2024-03-29T06:27:31;3.60;99.90
38361;DHT22;42005;48.044;14.416;2024-03-29T06:29:57;3.70;99.90
38361;DHT22;42005;48.044;14.416;2024-03-29T06:32:24;3.80;99.90
38361;DHT22;42005;48.044;14.416;2024-03-29T06:34:49;3.90;99.90
38361;DHT22;42005;48.044;14.416;2024-03-29T06:37:15;4.00;99.90
38361;DHT22;42005;48.044;14.416;2024-03-29T06:39:41;4.10;99.90
38361;DHT22;42005;48.044;14.416;2024-03-29T06:42:09;4.30;99.90
38361;DHT22;42005;48.044;14.416;2024-03-29T06:44:37;4.40;99.90
38361;DHT22;42005;48.044;14.416;2024-03-29T06:47:03;4.50;99.90
38361;DHT22;42005;48.044;14.416;2024-03-29T06:49:30;4.70;99.90
38361;DHT22;42005;48.044;14.416;2024-03-29T06:51:58;4.90;99.90
38361;DHT22;42005;48.044;14.416;2024-03-29T06:54:30;5.00;99.90
38361;DHT22;42005;48.044;14.416;2024-03-29T06:56:58;5.20;99.90
38361;DHT22;42005;48.044;14.416;2024-03-29T06:59:24;5.40;99.90
38361;DHT22;42005;48.044;14.416;2024-03-29T07:01:53;5.60;99.90
38361;DHT22;42005;48.044;14.416;2024-03-29T07:04:26;5.70;99.90
38361;DHT22;42005;48.044;14.416;2024-03-29T07:06:54;6.00;99.90
38361;DHT22;42005;48.044;14.416;2024-03-29T07:09:21;6.20;99.90
38361;DHT22;42005;48.044;14.416;2024-03-29T07:11:48;6.40;99.90
38361;DHT22;42005;48.044;14.416;2024-03-29T07:14:15;6.50;99.90
38361;DHT22;42005;48.044;14.416;2024-03-29T07:16:41;6.70;99.90
38361;DHT22;42005;48.044;14.416;2024-03-29T07:19:07;6.80;99.90
38361;DHT22;42005;48.044;14.416;2024-03-29T07:21:33;7.00;99.90
38361;DHT22;42005;48.044;14.416;2024-03-29T07:23:59;7.10;99.90
38361;DHT22;42005;48.044;14.416;2024-03-29T07:26:25;7.20;99.90
38361;DHT22;42005;48.044;14.416;2024-03-29T07:28:51;7.30;99.90
38361;DHT22;42005;48.044;14.416;2024-03-29T07:31:17;7.40;99.90
38361;DHT22;42005;48.044;14.416;2024-03-29T07:33:43;7.50;99.90
38361;DHT22;42005;48.044;14.416;2024-03-29T07:36:09;7.70;99.90
38361;DHT22;42005;48.044;14.416;2024-03-29T07:38:38;7.90;99.90
38361;DHT22;42005;48.044;14.416;2024-03-29T07:41:05;8.00;99.90
38361;DHT22;42005;48.044;14.416;2024-03-29T07:43:53;8.20;99.90
38361;DHT22;42005;48.044;14.416;2024-03-29T07:46:22;8.40;99.90
38361;DHT22;42005;48.044;14.416;2024-03-29T07:48:51;8.60;98.70
38361;DHT22;42005;48.044;14.416;2024-03-29T07:51:22;8.80;98.70
38361;DHT22;42005;48.044;14.416;2024-03-29T07:53:48;9.00;98.50
38361;DHT22;42005;48.044;14.416;2024-03-29T07:56:14;9.20;98.10
38361;DHT22;42005;48.044;14.416;2024-03-29T07:58:39;9.40;97.70
38361;DHT22;42005;48.044;14.416;2024-03-29T08:01:05;9.60;98.30
38361;DHT22;42005;48.044;14.416;2024-03-29T08:03:32;9.80;97.00
38361;DHT22;42005;48.044;14.416;2024-03-29T08:06:02;10.00;95.20
38361;DHT22;42005;48.044;14.416;2024-03-29T08:08:34;10.20;94.90
38361;DHT22;42005;48.044;14.416;2024-03-29T08:11:00;10.40;94.30
38361;DHT22;42005;48.044;14.416;2024-03-29T08:13:27;10.60;92.70
38361;DHT22;42005;48.044;14.416;2024-03-29T08:16:00;10.80;92.60
38361;DHT22;42005;48.044;14.416;2024-03-29T08:18:27;11.00;90.80
38361;DHT22;42005;48.044;14.416;2024-03-29T08:20:54;11.10;88.90
38361;DHT22;42005;48.044;14.416;2024-03-29T08:23:21;11.30;87.10
38361;DHT22;42005;48.044;14.416;2024-03-29T08:25:47;11.50;86.10
38361;DHT22;42005;48.044;14.416;2024-03-29T08:28:20;11.60;82.70
38361;DHT22;42005;48.044;14.416;2024-03-29T08:31:00;11.80;83.70
38361;DHT22;42005;48.044;14.416;2024-03-29T08:33:26;12.00;85.90
38361;DHT22;42005;48.044;14.416;2024-03-29T08:35:52;12.10;82.00
38361;DHT22;42005;48.044;14.416;2024-03-29T08:38:18;12.30;82.10
38361;DHT22;42005;48.044;14.416;2024-03-29T08:40:46;12.50;80.60
38361;DHT22;42005;48.044;14.416;2024-03-29T08:43:17;12.70;82.40
38361;DHT22;42005;48.044;14.416;2024-03-29T08:45:46;12.90;81.40
38361;DHT22;42005;48.044;14.416;2024-03-29T08:48:15;13.20;80.50
38361;DHT22;42005;48.044;14.416;2024-03-29T08:50:43;13.40;77.90
38361;DHT22;42005;48.044;14.416;2024-03-29T08:53:09;13.60;78.80
38361;DHT22;42005;48.044;14.416;2024-03-29T08:55:37;13.80;75.00
38361;DHT22;42005;48.044;14.416;2024-03-29T08:58:05;14.00;75.20
38361;DHT22;42005;48.044;14.416;2024-03-29T09:00:31;14.20;74.30
38361;DHT22;42005;48.044;14.416;2024-03-29T09:02:57;14.50;74.40
38361;DHT22;42005;48.044;14.416;2024-03-29T09:05:24;14.70;72.90
38361;DHT22;42005;48.044;14.416;2024-03-29T09:07:53;15.00;70.40
38361;DHT22;42005;48.044;14.416;2024-03-29T09:10:21;15.30;74.10
38361;DHT22;42005;48.044;14.416;2024-03-29T09:12:50;15.50;70.50
38361;DHT22;42005;48.044;14.416;2024-03-29T09:15:17;15.80;69.20
38361;DHT22;42005;48.044;14.416;2024-03-29T09:17:43;16.10;70.80
38361;DHT22;42005;48.044;14.416;2024-03-29T09:20:10;16.40;67.30
38361;DHT22;42005;48.044;14.416;2024-03-29T09:22:37;16.70;69.40
38361;DHT22;42005;48.044;14.416;2024-03-29T09:25:04;16.90;61.80
38361;DHT22;42005;48.044;14.416;2024-03-29T09:27:30;17.20;64.60
38361;DHT22;42005;48.044;14.416;2024-03-29T09:29:59;17.50;62.00
38361;DHT22;42005;48.044;14.416;2024-03-29T09:32:25;17.70;60.70
38361;DHT22;42005;48.044;14.416;2024-03-29T09:34:51;18.00;61.80
38361;DHT22;42005;48.044;14.416;2024-03-29T09:37:17;18.20;60.90
38361;DHT22;42005;48.044;14.416;2024-03-29T09:39:43;18.40;59.00
38361;DHT22;42005;48.044;14.416;2024-03-29T09:42:14;18.60;58.70
38361;DHT22;42005;48.044;14.416;2024-03-29T09:44:43;18.80;57.00
38361;DHT22;42005;48.044;14.416;2024-03-29T09:47:14;19.00;56.90
38361;DHT22;42005;48.044;14.416;2024-03-29T09:49:41;19.10;56.50
38361;DHT22;42005;48.044;14.416;2024-03-29T09:52:10;19.20;56.60
38361;DHT22;42005;48.044;14.416;2024-03-29T09:54:37;19.50;58.10
38361;DHT22;42005;48.044;14.416;2024-03-29T09:57:06;19.70;55.80
38361;DHT22;42005;48.044;14.416;2024-03-29T09:59:33;20.00;56.60
38361;DHT22;42005;48.044;14.416;2024-03-29T10:02:07;20.30;55.30
38361;DHT22;42005;48.044;14.416;2024-03-29T10:04:36;20.70;53.80
38361;DHT22;42005;48.044;14.416;2024-03-29T10:07:03;20.90;52.70
38361;DHT22;42005;48.044;14.416;2024-03-29T10:09:29;21.10;52.70
38361;DHT22;42005;48.044;14.416;2024-03-29T10:11:58;21.20;51.50
38361;DHT22;42005;48.044;14.416;2024-03-29T10:14:26;21.40;51.60
38361;DHT22;42005;48.044;14.416;2024-03-29T10:16:52;21.40;51.60
38361;DHT22;42005;48.044;14.416;2024-03-29T10:19:20;21.60;51.50
38361;DHT22;42005;48.044;14.416;2024-03-29T10:21:47;21.60;51.90
38361;DHT22;42005;48.044;14.416;2024-03-29T10:24:14;21.70;51.30
38361;DHT22;42005;48.044;14.416;2024-03-29T10:26:41;21.80;50.50
38361;DHT22;42005;48.044;14.416;2024-03-29T10:29:08;21.80;49.70
38361;DHT22;42005;48.044;14.416;2024-03-29T10:31:37;21.60;49.60
38361;DHT22;42005;48.044;14.416;2024-03-29T10:34:06;21.50;50.10
38361;DHT22;42005;48.044;14.416;2024-03-29T10:36:34;21.40;50.50
38361;DHT22;42005;48.044;14.416;2024-03-29T10:39:11;21.30;50.90
38361;DHT22;42005;48.044;14.416;2024-03-29T10:41:43;21.20;50.80
38361;DHT22;42005;48.044;14.416;2024-03-29T10:44:11;21.20;51.20
38361;DHT22;42005;48.044;14.416;2024-03-29T10:46:38;21.10;50.60
38361;DHT22;42005;48.044;14.416;2024-03-29T10:49:07;21.10;50.90
38361;DHT22;42005;48.044;14.416;2024-03-29T10:51:39;21.10;51.00
38361;DHT22;42005;48.044;14.416;2024-03-29T10:54:07;21.10;50.60
38361;DHT22;42005;48.044;14.416;2024-03-29T10:56:35;21.20;51.10
38361;DHT22;42005;48.044;14.416;2024-03-29T10:59:09;21.20;51.80
38361;DHT22;42005;48.044;14.416;2024-03-29T11:01:40;21.30;51.10
38361;DHT22;42005;48.044;14.416;2024-03-29T11:04:13;21.30;51.30
38361;DHT22;42005;48.044;14.416;2024-03-29T11:06:42;21.40;51.20
38361;DHT22;42005;48.044;14.416;2024-03-29T11:09:13;21.40;51.50
38361;DHT22;42005;48.044;14.416;2024-03-29T11:11:42;21.40;51.20
38361;DHT22;42005;48.044;14.416;2024-03-29T11:14:13;21.40;51.50
38361;DHT22;42005;48.044;14.416;2024-03-29T11:16:41;21.40;51.70
38361;DHT22;42005;48.044;14.416;2024-03-29T11:19:13;21.40;51.30
38361;DHT22;42005;48.044;14.416;2024-03-29T11:21:41;21.50;51.90
38361;DHT22;42005;48.044;14.416;2024-03-29T11:24:10;21.50;52.00
38361;DHT22;42005;48.044;14.416;2024-03-29T11:26:36;21.60;52.20
38361;DHT22;42005;48.044;14.416;2024-03-29T11:29:04;21.60;52.20
38361;DHT22;42005;48.044;14.416;2024-03-29T11:31:38;21.70;52.20
38361;DHT22;42005;48.044;14.416;2024-03-29T11:34:08;21.70;51.40
38361;DHT22;42005;48.044;14.416;2024-03-29T11:36:35;21.80;52.30
38361;DHT22;42005;48.044;14.416;2024-03-29T11:39:00;22.00;52.80
38361;DHT22;42005;48.044;14.416;2024-03-29T11:41:28;22.30;52.00
38361;DHT22;42005;48.044;14.416;2024-03-29T11:43:55;22.70;52.40
38361;DHT22;42005;48.044;14.416;2024-03-29T11:46:21;23.50;53.40
38361;DHT22;42005;48.044;14.416;2024-03-29T11:48:48;24.60;50.20
38361;DHT22;42005;48.044;14.416;2024-03-29T11:51:18;25.40;47.40
38361;DHT22;42005;48.044;14.416;2024-03-29T11:53:47;26.10;47.00
38361;DHT22;42005;48.044;14.416;2024-03-29T11:56:19;26.80;45.30
38361;DHT22;42005;48.044;14.416;2024-03-29T11:58:47;27.50;42.40
38361;DHT22;42005;48.044;14.416;2024-03-29T12:01:18;27.60;40.60
38361;DHT22;42005;48.044;14.416;2024-03-29T12:03:44;27.30;41.80
38361;DHT22;42005;48.044;14.416;2024-03-29T12:06:10;27.30;41.90
38361;DHT22;42005;48.044;14.416;2024-03-29T12:08:39;27.30;42.50
38361;DHT22;42005;48.044;14.416;2024-03-29T12:11:06;27.40;43.10
38361;DHT22;42005;48.044;14.416;2024-03-29T12:13:32;27.80;44.10
38361;DHT22;42005;48.044;14.416;2024-03-29T12:15:59;28.40;42.10
38361;DHT22;42005;48.044;14.416;2024-03-29T12:18:26;29.30;41.50
38361;DHT22;42005;48.044;14.416;2024-03-29T12:20:55;30.10;39.80
38361;DHT22;42005;48.044;14.416;2024-03-29T12:23:22;30.80;38.50
38361;DHT22;42005;48.044;14.416;2024-03-29T12:25:50;31.30;37.10
38361;DHT22;42005;48.044;14.416;2024-03-29T12:28:18;31.50;35.90
38361;DHT22;42005;48.044;14.416;2024-03-29T12:30:46;31.60;34.70
38361;DHT22;42005;48.044;14.416;2024-03-29T12:33:17;31.50;35.70
38361;DHT22;42005;48.044;14.416;2024-03-29T12:35:49;31.80;34.70
38361;DHT22;42005;48.044;14.416;2024-03-29T12:38:20;32.00;34.50
38361;DHT22;42005;48.044;14.416;2024-03-29T12:40:47;32.30;34.50
38361;DHT22;42005;48.044;14.416;2024-03-29T12:43:15;32.80;34.40
38361;DHT22;42005;48.044;14.416;2024-03-29T12:45:43;33.50;32.70
38361;DHT22;42005;48.044;14.416;2024-03-29T12:48:20;34.10;32.20
38361;DHT22;42005;48.044;14.416;2024-03-29T12:50:47;34.90;30.00
38361;DHT22;42005;48.044;14.416;2024-03-29T12:53:15;35.40;30.00
38361;DHT22;42005;48.044;14.416;2024-03-29T12:55:42;36.00;29.80
38361;DHT22;42005;48.044;14.416;2024-03-29T12:58:13;36.40;28.90
38361;DHT22;42005;48.044;14.416;2024-03-29T13:00:39;36.80;28.40
38361;DHT22;42005;48.044;14.416;2024-03-29T13:03:06;37.30;27.60
38361;DHT22;42005;48.044;14.416;2024-03-29T13:05:34;37.60;27.70
38361;DHT22;42005;48.044;14.416;2024-03-29T13:08:02;38.10;27.40
38361;DHT22;42005;48.044;14.416;2024-03-29T13:10:29;38.40;27.00
38361;DHT22;42005;48.044;14.416;2024-03-29T13:12:55;38.60;26.30
38361;DHT22;42005;48.044;14.416;2024-03-29T13:15:22;38.80;26.00
38361;DHT22;42005;48.044;14.416;2024-03-29T13:17:51;39.00;26.00
38361;DHT22;42005;48.044;14.416;2024-03-29T13:20:18;39.40;26.20
38361;DHT22;42005;48.044;14.416;2024-03-29T13:22:45;39.80;24.70
38361;DHT22;42005;48.044;14.416;2024-03-29T13:25:12;40.00;24.90
38361;DHT22;42005;48.044;14.416;2024-03-29T13:27:40;40.20;24.80
38361;DHT22;42005;48.044;14.416;2024-03-29T13:30:07;40.40;25.10
38361;DHT22;42005;48.044;14.416;2024-03-29T13:32:37;40.70;24.30
38361;DHT22;42005;48.044;14.416;2024-03-29T13:35:04;41.00;24.10
38361;DHT22;42005;48.044;14.416;2024-03-29T13:37:42;41.20;23.80
38361;DHT22;42005;48.044;14.416;2024-03-29T13:40:09;41.60;23.60
38361;DHT22;42005;48.044;14.416;2024-03-29T13:42:37;42.00;23.80
38361;DHT22;42005;48.044;14.416;2024-03-29T13:45:06;42.30;23.70
38361;DHT22;42005;48.044;14.416;2024-03-29T13:47:40;42.30;23.00
38361;DHT22;42005;48.044;14.416;2024-03-29T13:50:07;42.40;23.20
38361;DHT22;42005;48.044;14.416;2024-03-29T13:52:36;42.50;23.10
38361;DHT22;42005;48.044;14.416;2024-03-29T13:55:03;42.60;22.80
38361;DHT22;42005;48.044;14.416;2024-03-29T13:57:29;42.40;22.70
38361;DHT22;42005;48.044;14.416;2024-03-29T13:59:58;42.30;23.20
38361;DHT22;42005;48.044;14.416;2024-03-29T14:02:25;42.50;23.10
38361;DHT22;42005;48.044;14.416;2024-03-29T14:04:55;42.60;22.50
38361;DHT22;42005;48.044;14.416;2024-03-29T14:07:23;42.60;22.30
38361;DHT22;42005;48.044;14.416;2024-03-29T14:09:52;42.70;21.50
38361;DHT22;42005;48.044;14.416;2024-03-29T14:12:18;42.80;21.80
38361;DHT22;42005;48.044;14.416;2024-03-29T14:14:50;43.00;21.70
38361;DHT22;42005;48.044;14.416;2024-03-29T14:17:18;43.20;20.50
38361;DHT22;42005;48.044;14.416;2024-03-29T14:19:45;43.50;20.30
38361;DHT22;42005;48.044;14.416;2024-03-29T14:22:11;43.50;18.50
38361;DHT22;42005;48.044;14.416;2024-03-29T14:24:41;43.50;17.90
38361;DHT22;42005;48.044;14.416;2024-03-29T14:27:07;43.50;18.10
38361;DHT22;42005;48.044;14.416;2024-03-29T14:29:34;43.10;17.70
38361;DHT22;42005;48.044;14.416;2024-03-29T14:32:00;42.90;18.10
38361;DHT22;42005;48.044;14.416;2024-03-29T14:34:29;42.80;17.10
38361;DHT22;42005;48.044;14.416;2024-03-29T14:37:01;42.70;17.20
38361;DHT22;42005;48.044;14.416;2024-03-29T14:39:28;42.40;16.90
38361;DHT22;42005;48.044;14.416;2024-03-29T14:41:53;41.90;17.30
38361;DHT22;42005;48.044;14.416;2024-03-29T14:44:20;41.60;18.30
38361;DHT22;42005;48.044;14.416;2024-03-29T14:46:49;41.40;19.80
38361;DHT22;42005;48.044;14.416;2024-03-29T14:49:18;41.00;19.20
38361;DHT22;42005;48.044;14.416;2024-03-29T14:51:45;40.50;20.10
38361;DHT22;42005;48.044;14.416;2024-03-29T14:54:11;40.30;18.70
38361;DHT22;42005;48.044;14.416;2024-03-29T14:56:37;39.60;17.80
38361;DHT22;42005;48.044;14.416;2024-03-29T14:59:04;37.90;18.30
38361;DHT22;42005;48.044;14.416;2024-03-29T15:01:31;36.50;19.00
38361;DHT22;42005;48.044;14.416;2024-03-29T15:03:57;35.10;19.90
38361;DHT22;42005;48.044;14.416;2024-03-29T15:06:26;33.70;21.00
38361;DHT22;42005;48.044;14.416;2024-03-29T15:08:53;32.50;21.80
38361;DHT22;42005;48.044;14.416;2024-03-29T15:11:20;31.70;22.30
38361;DHT22;42005;48.044;14.416;2024-03-29T15:13:45;30.70;23.60
38361;DHT22;42005;48.044;14.416;2024-03-29T15:16:11;29.70;24.10
38361;DHT22;42005;48.044;14.416;2024-03-29T15:18:37;29.10;25.20
38361;DHT22;42005;48.044;14.416;2024-03-29T15:21:04;28.70;25.50
38361;DHT22;42005;48.044;14.416;2024-03-29T15:23:30;28.10;25.70
38361;DHT22;42005;48.044;14.416;2024-03-29T15:25:58;27.50;26.70
38361;DHT22;42005;48.044;14.416;2024-03-29T15:28:25;27.10;27.30